Time;durP1;ratioP1;P1;durP2;ratioP2;P2;SDS_P1;SDS_P2;PMS_P1;PMS_P2;Temp;Humidity;BMP_temperature;BMP_pressure;BME280_temperature;BME280_humidity;BME280_pressure;Samples;Min_cycle;Max_cycle;Signal;HPM_P1;HPM_P2
2022/04/09 00:00:33;;;;;;;1.67;0.50;;;4.20;99.90;;;;;;4998735;28;20042;-75
2022/04/09 00:03:00;;;;;;;2.50;0.52;;;4.30;99.90;;;;;;5015922;28;20053;-74
2022/04/09 00:05:26;;;;;;;0.93;0.40;;;4.30;99.90;;;;;;4998434;28;20490;-75
2022/04/09 00:07:52;;;;;;;5.18;0.43;;;4.20;99.90;;;;;;5015596;28;20470;-74
2022/04/09 00:10:18;;;;;;;2.85;0.68;;;4.50;99.90;;;;;;5015741;28;20060;-75
2022/04/09 00:12:45;;;;;;;4.97;0.60;;;4.30;99.90;;;;;;5015620;28;20058;-74
2022/04/09 00:15:12;;;;;;;5.68;0.70;;;4.20;99.90;;;;;;5014777;28;20056;-73
2022/04/09 00:17:42;;;;;;;2.47;0.60;;;4.20;99.90;;;;;;5016256;28;20099;-73
2022/04/09 00:20:11;;;;;;;2.17;0.40;;;3.90;99.90;;;;;;5014657;28;20053;-74
2022/04/09 00:22:38;;;;;;;4.35;0.60;;;4.20;99.90;;;;;;5014616;28;20084;-73
2022/04/09 00:25:10;;;;;;;4.85;0.50;;;4.20;99.90;;;;;;5014278;28;20052;-74
2022/04/09 00:27:36;;;;;;;1.77;0.57;;;4.20;99.90;;;;;;5015438;28;20054;-74
2022/04/09 00:30:04;;;;;;;3.40;0.60;;;5.00;99.90;;;;;;5014551;28;20045;-75
2022/04/09 00:32:30;;;;;;;3.05;0.60;;;4.20;99.90;;;;;;5014717;28;20056;-74
2022/04/09 00:34:55;;;;;;;4.68;0.70;;;4.80;99.90;;;;;;5014442;28;20087;-75
2022/04/09 00:37:21;;;;;;;4.22;0.63;;;4.80;99.90;;;;;;5015271;28;20089;-74
2022/04/09 00:39:46;;;;;;;2.70;0.65;;;4.60;99.90;;;;;;5014026;28;20060;-75
2022/04/09 00:42:18;;;;;;;4.60;0.57;;;4.10;99.90;;;;;;5014129;28;20041;-74
2022/04/09 00:44:44;;;;;;;3.50;0.45;;;4.10;99.90;;;;;;5015757;28;20053;-75
2022/04/09 00:47:11;;;;;;;3.40;0.60;;;4.30;99.90;;;;;;4997671;28;20108;-73
2022/04/09 00:49:39;;;;;;;2.78;0.40;;;4.00;99.90;;;;;;5015138;28;20130;-75
2022/04/09 00:52:07;;;;;;;5.05;0.57;;;4.40;99.90;;;;;;4997752;28;20085;-75
2022/04/09 00:54:36;;;;;;;3.25;0.68;;;4.10;99.90;;;;;;5015115;28;20482;-74
2022/04/09 00:57:05;;;;;;;5.80;0.60;;;4.00;99.90;;;;;;5015131;28;20054;-74
2022/04/09 00:59:35;;;;;;;4.63;0.65;;;4.10;99.90;;;;;;5015032;28;20133;-75
2022/04/09 01:02:01;;;;;;;2.47;0.60;;;4.10;99.90;;;;;;5014196;28;20140;-75
2022/04/09 01:04:27;;;;;;;3.20;0.68;;;4.10;99.90;;;;;;5014364;28;20455;-75
2022/04/09 01:06:55;;;;;;;4.15;0.60;;;4.00;99.90;;;;;;5014944;28;20057;-74
2022/04/09 01:09:21;;;;;;;2.83;0.60;;;4.20;99.90;;;;;;5014788;28;20054;-75
2022/04/09 01:11:47;;;;;;;3.38;0.50;;;4.70;99.90;;;;;;5014953;28;20054;-75
2022/04/09 01:14:13;;;;;;;5.07;0.60;;;4.50;99.90;;;;;;5014891;28;20054;-76
2022/04/09 01:16:39;;;;;;;4.30;0.60;;;4.70;99.90;;;;;;5015192;28;20045;-76
2022/04/09 01:19:05;;;;;;;3.03;0.50;;;4.20;99.90;;;;;;5015993;28;20057;-76
2022/04/09 01:21:31;;;;;;;7.53;0.70;;;4.20;99.90;;;;;;5016665;28;20050;-75
2022/04/09 01:23:57;;;;;;;2.72;0.70;;;4.20;99.90;;;;;;5014823;28;20053;-75
2022/04/09 01:26:23;;;;;;;2.45;0.70;;;5.10;99.90;;;;;;5027316;28;20046;-76
2022/04/09 01:28:50;;;;;;;2.25;0.70;;;4.30;99.90;;;;;;5030532;28;20046;-74
2022/04/09 01:31:16;;;;;;;3.92;0.60;;;4.60;99.90;;;;;;5030288;28;20052;-76
2022/04/09 01:33:42;;;;;;;2.22;0.90;;;4.50;99.90;;;;;;5001911;28;20553;-72
2022/04/09 01:36:09;;;;;;;6.35;0.63;;;4.50;99.90;;;;;;5004168;28;20064;-75
2022/04/09 01:38:35;;;;;;;6.00;0.70;;;4.80;99.90;;;;;;5016269;28;20065;-74
2022/04/09 01:41:02;;;;;;;5.72;0.57;;;4.10;99.90;;;;;;5014984;28;20065;-73
2022/04/09 01:43:28;;;;;;;3.17;0.73;;;4.20;99.90;;;;;;5015144;28;20081;-75
2022/04/09 01:45:53;;;;;;;5.35;0.40;;;4.30;99.90;;;;;;5014557;28;20521;-75
2022/04/09 01:48:19;;;;;;;2.30;0.40;;;4.90;99.90;;;;;;5013182;28;20046;-74
2022/04/09 01:50:46;;;;;;;0.82;0.30;;;5.30;99.90;;;;;;4997223;28;20054;-76
2022/04/09 01:53:12;;;;;;;1.45;0.43;;;4.20;99.90;;;;;;5014352;28;20050;-75
2022/04/09 01:55:37;;;;;;;2.47;0.40;;;4.20;99.90;;;;;;5013232;28;20379;-76
2022/04/09 01:58:04;;;;;;;1.23;0.25;;;4.10;99.90;;;;;;5013415;28;20088;-76
2022/04/09 02:00:30;;;;;;;0.85;0.30;;;3.90;99.90;;;;;;5013386;28;20045;-72
2022/04/09 02:02:56;;;;;;;1.85;0.30;;;4.10;99.90;;;;;;5014400;28;20402;-72
2022/04/09 02:05:23;;;;;;;1.55;0.30;;;4.40;99.90;;;;;;4996565;28;20104;-75
2022/04/09 02:07:48;;;;;;;0.63;0.32;;;4.20;99.90;;;;;;5012827;28;20436;-76
2022/04/09 02:10:15;;;;;;;4.50;0.45;;;4.20;99.90;;;;;;5018216;28;20061;-74
2022/04/09 02:12:41;;;;;;;6.10;0.75;;;4.00;99.90;;;;;;5020614;28;20573;-75
2022/04/09 02:15:09;;;;;;;4.05;0.40;;;4.20;99.90;;;;;;5021334;28;20124;-75
2022/04/09 02:17:37;;;;;;;2.42;0.60;;;4.10;99.90;;;;;;5020525;28;20057;-74
2022/04/09 02:20:04;;;;;;;2.53;0.50;;;4.20;99.90;;;;;;5020217;28;20493;-76
2022/04/09 02:22:35;;;;;;;1.92;0.65;;;4.10;99.90;;;;;;5003258;28;20065;-77
2022/04/09 02:25:05;;;;;;;1.75;0.40;;;4.20;99.90;;;;;;5019015;28;20505;-76
2022/04/09 02:27:31;;;;;;;6.15;0.50;;;4.10;99.90;;;;;;5020370;28;20053;-76
2022/04/09 02:29:56;;;;;;;3.22;0.65;;;4.10;99.90;;;;;;4986574;28;20054;-75
2022/04/09 02:32:22;;;;;;;2.17;0.43;;;4.10;99.90;;;;;;5020285;28;20042;-75
2022/04/09 02:34:49;;;;;;;2.25;0.43;;;4.00;99.90;;;;;;5020399;28;20073;-75
2022/04/09 02:37:15;;;;;;;2.33;0.50;;;4.50;99.90;;;;;;5020200;28;20049;-74
2022/04/09 02:39:42;;;;;;;2.25;0.52;;;4.00;99.90;;;;;;5020576;28;20088;-75
2022/04/09 02:42:08;;;;;;;1.35;0.30;;;4.00;99.90;;;;;;5019718;28;20061;-76
2022/04/09 02:44:34;;;;;;;1.88;0.30;;;4.00;99.90;;;;;;5018970;28;20049;-75
2022/04/09 02:46:59;;;;;;;2.22;0.32;;;3.40;99.90;;;;;;5019373;28;20430;-75
2022/04/09 02:49:25;;;;;;;1.60;0.40;;;3.90;99.90;;;;;;5003870;28;20050;-75
2022/04/09 02:51:51;;;;;;;2.58;0.40;;;3.80;99.90;;;;;;5020077;28;20458;-75
2022/04/09 02:54:17;;;;;;;2.60;0.40;;;3.90;99.90;;;;;;5003377;28;20041;-74
2022/04/09 02:56:48;;;;;;;1.23;0.30;;;3.80;99.90;;;;;;5020724;28;20050;-75
2022/04/09 02:59:14;;;;;;;4.13;0.40;;;4.00;99.90;;;;;;5020310;28;20049;-74
2022/04/09 03:01:42;;;;;;;4.80;0.60;;;3.80;99.90;;;;;;5023104;28;20049;-75
2022/04/09 03:04:08;;;;;;;5.03;0.50;;;4.00;99.90;;;;;;5020085;28;20042;-74
2022/04/09 03:06:34;;;;;;;3.50;0.50;;;4.00;99.90;;;;;;5019487;28;20055;-72
2022/04/09 03:09:01;;;;;;;2.55;0.50;;;4.00;99.90;;;;;;5020169;28;20054;-75
2022/04/09 03:11:27;;;;;;;1.52;0.40;;;3.90;99.90;;;;;;5020382;28;20510;-74
2022/04/09 03:13:53;;;;;;;3.17;0.47;;;3.90;99.90;;;;;;5019433;28;20073;-74
2022/04/09 03:16:18;;;;;;;3.53;0.50;;;3.90;99.90;;;;;;5018873;28;20046;-75
2022/04/09 03:18:44;;;;;;;2.78;0.40;;;4.60;99.90;;;;;;5019085;28;20085;-75
2022/04/09 03:21:10;;;;;;;2.03;0.50;;;3.70;99.90;;;;;;5017366;28;20128;-75
2022/04/09 03:23:35;;;;;;;4.03;0.52;;;3.60;99.90;;;;;;5017121;28;20462;-73
2022/04/09 03:26:01;;;;;;;6.10;0.70;;;3.70;99.90;;;;;;5015618;28;20049;-75
2022/04/09 03:28:27;;;;;;;1.13;0.50;;;4.70;99.90;;;;;;4999334;28;20053;-75
2022/04/09 03:30:53;;;;;;;5.00;0.60;;;3.70;99.90;;;;;;5015710;28;20054;-74
2022/04/09 03:33:19;;;;;;;2.67;0.60;;;3.70;99.90;;;;;;5000394;28;20466;-74
2022/04/09 03:35:47;;;;;;;4.93;0.60;;;3.70;99.90;;;;;;5017181;28;20081;-72
2022/04/09 03:38:14;;;;;;;3.00;0.50;;;4.90;99.90;;;;;;5016612;28;20409;-75
2022/04/09 03:40:40;;;;;;;2.25;0.50;;;3.80;99.90;;;;;;5017007;28;20045;-74
2022/04/09 03:43:05;;;;;;;4.88;0.85;;;3.80;99.90;;;;;;5016341;28;20057;-75
2022/04/09 03:45:31;;;;;;;4.55;0.80;;;3.80;99.90;;;;;;5016496;28;20112;-74
2022/04/09 03:47:57;;;;;;;1.75;0.40;;;3.80;99.90;;;;;;4999126;28;20100;-74
2022/04/09 03:50:23;;;;;;;3.58;0.60;;;4.60;99.90;;;;;;5017143;28;20053;-75
2022/04/09 03:52:48;;;;;;;2.83;0.80;;;3.80;99.90;;;;;;5015337;28;20449;-75
2022/04/09 03:55:15;;;;;;;5.18;0.70;;;3.80;99.90;;;;;;5016226;28;20053;-74
2022/04/09 03:57:41;;;;;;;4.30;0.50;;;3.90;99.90;;;;;;5015947;28;20052;-74
2022/04/09 04:00:08;;;;;;;3.15;0.50;;;4.30;99.90;;;;;;4998788;28;20042;-75
2022/04/09 04:02:34;;;;;;;3.22;0.60;;;3.70;99.90;;;;;;5016225;28;20108;-74
2022/04/09 04:05:03;;;;;;;4.22;0.60;;;3.70;99.90;;;;;;4998758;28;20049;-73
2022/04/09 04:07:32;;;;;;;2.15;0.60;;;3.70;99.90;;;;;;4999159;28;20046;-74
2022/04/09 04:10:06;;;;;;;5.13;1.00;;;3.70;99.90;;;;;;5016480;28;20054;-73
2022/04/09 04:12:32;;;;;;;5.90;0.90;;;3.70;99.90;;;;;;5016338;28;20108;-75
2022/04/09 04:14:58;;;;;;;3.53;0.77;;;3.70;99.90;;;;;;5015953;28;20486;-74
2022/04/09 04:17:23;;;;;;;3.20;0.75;;;3.80;99.90;;;;;;5000113;28;20099;-75
2022/04/09 04:19:49;;;;;;;4.05;0.50;;;4.00;99.90;;;;;;5014678;28;20053;-72
2022/04/09 04:22:15;;;;;;;2.75;0.45;;;4.60;99.90;;;;;;5014557;28;20167;-75
2022/04/09 04:24:41;;;;;;;6.22;1.15;;;4.30;99.90;;;;;;4998449;28;20085;-74
2022/04/09 04:27:06;;;;;;;5.00;0.60;;;4.30;99.90;;;;;;5015449;28;20042;-75
2022/04/09 04:29:33;;;;;;;3.30;0.55;;;3.70;99.90;;;;;;5014413;28;20050;-74
2022/04/09 04:32:00;;;;;;;3.53;0.80;;;3.60;99.90;;;;;;5015523;28;20490;-75
2022/04/09 04:34:25;;;;;;;3.97;1.15;;;3.60;99.90;;;;;;5014498;28;20053;-74
2022/04/09 04:36:51;;;;;;;3.90;0.70;;;3.60;99.90;;;;;;5015411;28;20478;-75
2022/04/09 04:39:17;;;;;;;3.85;0.70;;;4.10;99.90;;;;;;4998147;28;20046;-76
2022/04/09 04:41:42;;;;;;;4.45;0.70;;;4.60;99.90;;;;;;5014417;28;20042;-74
2022/04/09 04:44:10;;;;;;;4.22;0.60;;;3.50;99.90;;;;;;5015184;28;20042;-74
2022/04/09 04:46:36;;;;;;;4.40;0.60;;;3.50;99.90;;;;;;5014304;28;20544;-72
2022/04/09 04:49:03;;;;;;;7.65;0.73;;;3.60;99.90;;;;;;5014585;28;20370;-75
2022/04/09 04:51:29;;;;;;;1.92;0.55;;;3.60;99.90;;;;;;5013997;28;20052;-74
2022/04/09 04:53:54;;;;;;;5.60;0.60;;;3.50;99.90;;;;;;5015008;28;20042;-75
2022/04/09 04:56:23;;;;;;;3.55;0.57;;;3.70;99.90;;;;;;4997733;28;20485;-75
2022/04/09 04:58:49;;;;;;;3.38;0.60;;;3.70;99.90;;;;;;5014407;28;20371;-75
2022/04/09 05:01:15;;;;;;;3.90;0.60;;;3.70;99.90;;;;;;5015052;28;20053;-75
2022/04/09 05:03:41;;;;;;;3.38;0.55;;;3.70;99.90;;;;;;5014928;28;20038;-75
2022/04/09 05:06:07;;;;;;;3.05;0.57;;;3.90;99.90;;;;;;4997640;28;20046;-75
2022/04/09 05:08:33;;;;;;;4.45;0.43;;;3.70;99.90;;;;;;5013893;28;20054;-74
2022/04/09 05:10:59;;;;;;;2.85;0.50;;;3.60;99.90;;;;;;5013836;28;20092;-74
2022/04/09 05:13:24;;;;;;;3.50;0.60;;;3.70;99.90;;;;;;5014658;28;20050;-75
2022/04/09 05:15:50;;;;;;;3.85;0.63;;;3.70;99.90;;;;;;5014797;28;20050;-75
2022/04/09 05:18:16;;;;;;;4.93;0.60;;;3.70;99.90;;;;;;5015072;28;20046;-75
2022/04/09 05:20:41;;;;;;;2.70;0.50;;;3.60;99.90;;;;;;5015024;28;20077;-74
2022/04/09 05:23:07;;;;;;;2.00;0.80;;;3.40;99.90;;;;;;5014272;28;20454;-73
2022/04/09 05:25:33;;;;;;;7.13;0.80;;;3.80;99.90;;;;;;5013498;28;20129;-73
2022/04/09 05:28:04;;;;;;;5.55;0.77;;;3.70;99.90;;;;;;5013577;28;20046;-74
2022/04/09 05:30:31;;;;;;;4.97;0.80;;;3.80;99.90;;;;;;5013833;28;20053;-74
2022/04/09 05:32:57;;;;;;;2.63;0.90;;;3.90;99.90;;;;;;5013522;28;20049;-75
2022/04/09 05:35:23;;;;;;;4.50;0.80;;;3.90;99.90;;;;;;5015001;28;20049;-75
2022/04/09 05:37:51;;;;;;;4.78;0.60;;;3.90;99.90;;;;;;5013585;28;20046;-74
2022/04/09 05:40:17;;;;;;;3.65;0.82;;;4.00;99.90;;;;;;5013182;28;20057;-73
2022/04/09 05:42:43;;;;;;;2.72;0.50;;;3.60;99.90;;;;;;5013354;28;20050;-74
2022/04/09 05:45:12;;;;;;;5.93;0.60;;;4.00;99.90;;;;;;5013533;28;20042;-74
2022/04/09 05:47:42;;;;;;;3.10;0.70;;;4.90;99.90;;;;;;5013004;28;20050;-74
2022/04/09 05:50:09;;;;;;;4.32;0.73;;;4.50;99.90;;;;;;5014217;28;20042;-75
2022/04/09 05:52:35;;;;;;;6.22;0.80;;;4.10;99.90;;;;;;4997193;28;20539;-74
2022/04/09 05:55:03;;;;;;;4.03;0.57;;;4.10;99.90;;;;;;5013257;28;20045;-74
2022/04/09 05:57:30;;;;;;;4.07;0.63;;;4.10;99.90;;;;;;5014221;28;20064;-75
2022/04/09 05:59:55;;;;;;;2.78;0.50;;;4.20;99.90;;;;;;5014089;28;20053;-76
2022/04/09 06:02:21;;;;;;;5.53;0.60;;;4.30;99.90;;;;;;5012905;28;20038;-75
2022/04/09 06:04:47;;;;;;;3.35;0.80;;;4.20;99.90;;;;;;5014687;28;20124;-75
2022/04/09 06:07:13;;;;;;;2.35;0.60;;;4.20;99.90;;;;;;5014044;28;20080;-74
2022/04/09 06:09:42;;;;;;;4.35;0.77;;;4.20;99.90;;;;;;5014293;28;20127;-73
2022/04/09 06:12:09;;;;;;;3.35;0.77;;;4.40;99.90;;;;;;5013009;28;20057;-74
2022/04/09 06:14:35;;;;;;;5.97;0.50;;;4.20;99.90;;;;;;5013021;28;20441;-75
2022/04/09 06:17:01;;;;;;;2.63;0.60;;;4.10;99.90;;;;;;5013891;28;20620;-75
2022/04/09 06:19:29;;;;;;;3.90;0.95;;;4.10;99.90;;;;;;4996589;28;20498;-75
2022/04/09 06:21:56;;;;;;;2.80;0.55;;;4.20;99.90;;;;;;4997751;28;20046;-75
2022/04/09 06:24:21;;;;;;;2.63;0.35;;;4.90;99.90;;;;;;5012999;28;20129;-74
2022/04/09 06:26:47;;;;;;;2.05;0.45;;;4.40;99.90;;;;;;5012792;28;20184;-70
2022/04/09 06:29:13;;;;;;;2.17;0.40;;;4.20;99.90;;;;;;5013953;28;20046;-76
2022/04/09 06:31:38;;;;;;;3.65;0.82;;;4.30;99.90;;;;;;5014389;28;20462;-76
2022/04/09 06:34:04;;;;;;;1.08;0.50;;;4.40;99.90;;;;;;5012323;28;20041;-76
2022/04/09 06:36:30;;;;;;;2.03;0.68;;;4.40;99.90;;;;;;5012522;28;20058;-74
2022/04/09 06:38:56;;;;;;;2.80;0.60;;;4.50;99.90;;;;;;5013299;28;20046;-75
2022/04/09 06:41:21;;;;;;;3.15;0.60;;;4.50;99.90;;;;;;5013171;28;20050;-73
2022/04/09 06:43:48;;;;;;;3.30;0.50;;;4.50;99.90;;;;;;5013493;28;20038;-75
2022/04/09 06:46:15;;;;;;;3.30;0.40;;;4.50;99.90;;;;;;5012622;28;20466;-73
2022/04/09 06:48:40;;;;;;;3.85;0.52;;;5.00;99.90;;;;;;5013710;28;20096;-72
2022/04/09 06:51:06;;;;;;;2.70;0.82;;;4.70;99.90;;;;;;5013574;28;20085;-74
2022/04/09 06:53:32;;;;;;;2.85;0.60;;;4.60;99.90;;;;;;5013595;28;20078;-74
2022/04/09 06:55:58;;;;;;;5.63;0.60;;;4.60;99.90;;;;;;5015383;28;20054;-74
2022/04/09 06:58:24;;;;;;;2.45;0.63;;;5.30;99.90;;;;;;5018100;28;20045;-73
2022/04/09 07:00:50;;;;;;;8.13;0.70;;;4.70;99.90;;;;;;5016108;28;20390;-74
2022/04/09 07:03:17;;;;;;;5.60;0.88;;;5.10;99.90;;;;;;4999473;28;20533;-73
2022/04/09 07:05:43;;;;;;;5.90;0.63;;;5.00;99.90;;;;;;5015831;28;20054;-72
2022/04/09 07:08:09;;;;;;;6.63;0.70;;;5.00;99.90;;;;;;4999389;28;20050;-73
2022/04/09 07:10:39;;;;;;;5.00;1.00;;;5.10;99.90;;;;;;5016351;28;20050;-71
2022/04/09 07:13:08;;;;;;;9.25;0.85;;;5.30;99.90;;;;;;5015946;28;20495;-72
2022/04/09 07:15:34;;;;;;;2.60;0.60;;;5.40;99.90;;;;;;5017026;28;20053;-73
2022/04/09 07:18:00;;;;;;;2.50;0.60;;;5.40;99.90;;;;;;5016845;28;20096;-72
2022/04/09 07:20:26;;;;;;;1.85;0.60;;;5.40;99.90;;;;;;5016724;28;20086;-73
2022/04/09 07:22:52;;;;;;;3.17;0.50;;;5.30;99.90;;;;;;5015573;28;20056;-73
2022/04/09 07:25:18;;;;;;;2.05;0.43;;;5.20;99.90;;;;;;5015771;28;20394;-74
2022/04/09 07:27:45;;;;;;;2.22;0.70;;;5.10;99.90;;;;;;5016654;28;20045;-73
2022/04/09 07:30:18;;;;;;;9.23;1.27;;;5.10;99.90;;;;;;5015783;28;20065;-73
2022/04/09 07:32:45;;;;;;;4.88;1.10;;;5.60;99.90;;;;;;5017618;28;20053;-73
2022/04/09 07:35:12;;;;;;;8.70;0.90;;;5.20;99.90;;;;;;5016967;28;20058;-68
2022/04/09 07:37:58;;;;;;;5.63;0.98;;;5.40;99.90;;;;;;5015993;28;20046;-75
2022/04/09 07:40:25;;;;;;;4.55;1.35;;;5.70;99.90;;;;;;5016243;28;20046;-72
2022/04/09 07:42:51;;;;;;;9.27;0.85;;;5.60;99.90;;;;;;4999137;28;20393;-71
2022/04/09 07:45:17;;;;;;;5.90;0.80;;;5.60;99.90;;;;;;5016436;28;20057;-72
2022/04/09 07:47:44;;;;;;;3.88;0.73;;;5.70;99.90;;;;;;5017021;28;20129;-73
2022/04/09 07:50:11;;;;;;;2.65;0.50;;;5.90;99.90;;;;;;5016599;28;20398;-71
2022/04/09 07:52:45;;;;;;;7.03;0.73;;;5.70;99.90;;;;;;5015497;28;20057;-73
2022/04/09 07:55:15;;;;;;;6.30;0.70;;;5.80;99.90;;;;;;5015389;28;20429;-71
2022/04/09 07:57:41;;;;;;;4.70;0.70;;;5.90;99.90;;;;;;5016785;28;20092;-71
2022/04/09 08:00:08;;;;;;;6.43;0.98;;;6.00;99.90;;;;;;5016204;28;20081;-72
2022/04/09 08:02:34;;;;;;;6.40;0.90;;;6.00;99.90;;;;;;5016140;28;20049;-73
2022/04/09 08:05:01;;;;;;;5.45;0.73;;;6.70;99.90;;;;;;5015680;28;20089;-71
2022/04/09 08:07:27;;;;;;;6.05;0.98;;;6.20;99.90;;;;;;5014057;28;20124;-72
2022/04/09 08:09:52;;;;;;;8.18;0.90;;;6.30;99.90;;;;;;5014616;28;20136;-71
2022/04/09 08:12:18;;;;;;;5.15;0.80;;;6.60;99.90;;;;;;5016477;28;20390;-73
2022/04/09 08:14:44;;;;;;;5.32;0.80;;;6.60;99.90;;;;;;5014940;28;20049;-71
2022/04/09 08:17:10;;;;;;;6.47;1.00;;;6.60;99.90;;;;;;5015632;28;20184;-72
2022/04/09 08:19:36;;;;;;;5.93;0.47;;;6.70;99.90;;;;;;4997930;28;20545;-75
2022/04/09 08:22:04;;;;;;;3.55;1.13;;;6.00;99.90;;;;;;5014456;28;20033;-72
2022/04/09 08:24:30;;;;;;;3.50;1.05;;;6.70;99.90;;;;;;5014578;28;20048;-72
2022/04/09 08:26:56;;;;;;;8.00;1.20;;;6.80;99.90;;;;;;5015233;28;20042;-72
2022/04/09 08:29:24;;;;;;;3.00;0.65;;;6.80;99.90;;;;;;5014515;28;20132;-69
2022/04/09 08:31:50;;;;;;;5.97;0.80;;;6.80;99.90;;;;;;5014880;28;20265;-69
2022/04/09 08:34:17;;;;;;;5.15;0.60;;;6.80;99.90;;;;;;5013901;28;20054;-69
2022/04/09 08:36:44;;;;;;;5.32;0.80;;;6.90;99.90;;;;;;5014464;28;20136;-71
2022/04/09 08:39:10;;;;;;;6.70;0.70;;;7.00;99.90;;;;;;5012961;28;20136;-70
2022/04/09 08:41:39;;;;;;;4.40;0.60;;;6.90;99.90;;;;;;5014245;28;20046;-73
2022/04/09 08:44:05;;;;;;;4.97;0.80;;;6.90;99.90;;;;;;5013480;28;20038;-69
2022/04/09 08:46:32;;;;;;;2.92;0.55;;;6.80;99.90;;;;;;5013259;28;20046;-73
2022/04/09 08:49:05;;;;;;;4.82;0.65;;;6.70;99.90;;;;;;4997177;28;20068;-71
2022/04/09 08:51:32;;;;;;;1.05;0.30;;;6.40;99.90;;;;;;5013745;28;20130;-69
2022/04/09 08:54:00;;;;;;;1.73;0.45;;;6.10;99.90;;;;;;5013736;28;20060;-70
2022/04/09 08:56:27;;;;;;;0.55;0.30;;;5.90;99.90;;;;;;4997392;28;20112;-70
2022/04/09 08:58:52;;;;;;;2.25;0.25;;;5.90;99.90;;;;;;5014176;28;20129;-72
2022/04/09 09:01:22;;;;;;;1.45;0.38;;;6.10;99.90;;;;;;5013094;28;20129;-74
2022/04/09 09:03:48;;;;;;;0.77;0.10;;;5.50;99.90;;;;;;5014756;28;20556;-73
2022/04/09 09:06:35;;;;;;;1.05;0.20;;;5.90;99.90;;;;;;5013335;28;20045;-76
2022/04/09 09:09:04;;;;;;;0.30;0.28;;;5.40;99.90;;;;;;4996495;28;20073;-76
2022/04/09 09:11:47;;;;;;;1.23;0.15;;;6.00;99.90;;;;;;5013502;28;20054;-72
2022/04/09 09:14:26;;;;;;;2.42;0.30;;;5.60;99.90;;;;;;5013259;28;20085;-72
2022/04/09 09:16:54;;;;;;;6.65;0.77;;;5.90;99.90;;;;;;5014667;28;20049;-77
2022/04/09 09:19:21;;;;;;;2.47;0.45;;;6.20;99.90;;;;;;5012096;28;20115;-69
2022/04/09 09:21:54;;;;;;;1.55;0.40;;;6.50;99.90;;;;;;5014047;28;20057;-76
2022/04/09 09:24:20;;;;;;;;;;;5.80;99.90;;;;;;5012453;28;20046;-73
2022/04/09 09:26:55;;;;;;;3.50;0.50;;;5.40;99.90;;;;;;5013622;28;19921;-73
2022/04/09 09:29:27;;;;;;;1.88;0.40;;;5.10;99.90;;;;;;5014187;28;20111;-72
2022/04/09 09:31:54;;;;;;;2.53;0.30;;;4.80;99.90;;;;;;5012877;28;20045;-76
2022/04/09 09:34:20;;;;;;;2.13;0.30;;;4.50;99.90;;;;;;5013844;28;20088;-72
2022/04/09 09:36:47;;;;;;;2.13;0.50;;;4.50;99.90;;;;;;5013988;28;20053;-72
2022/04/09 09:39:14;;;;;;;2.42;0.50;;;4.40;99.90;;;;;;5014290;28;20049;-72
2022/04/09 09:41:55;;;;;;;3.65;0.50;;;4.30;99.90;;;;;;5013583;28;20060;-71
2022/04/09 09:44:23;;;;;;;4.43;0.40;;;4.10;99.90;;;;;;4996507;28;20100;-71
2022/04/09 09:46:50;;;;;;;3.80;0.32;;;4.30;99.90;;;;;;5013734;28;20390;-72
2022/04/09 09:49:17;;;;;;;1.27;0.30;;;4.40;99.90;;;;;;5014274;28;20386;-73
2022/04/09 09:51:44;;;;;;;1.95;0.50;;;5.00;99.90;;;;;;5013829;28;20093;-69
2022/04/09 09:54:13;;;;;;;1.77;0.57;;;4.60;99.90;;;;;;5013383;28;20065;-72
2022/04/09 09:56:44;;;;;;;2.67;0.40;;;4.80;99.90;;;;;;5012340;28;20060;-71
2022/04/09 09:59:14;;;;;;;3.20;0.43;;;5.70;99.90;;;;;;5012169;28;20054;-70
2022/04/09 10:01:42;;;;;;;1.85;0.30;;;5.10;99.90;;;;;;5012757;28;20093;-70
2022/04/09 10:04:11;;;;;;;2.90;0.30;;;5.50;99.90;;;;;;5013533;28;20052;-70
2022/04/09 10:06:38;;;;;;;6.57;0.50;;;5.60;99.90;;;;;;5012838;28;20065;-70
2022/04/09 10:09:05;;;;;;;3.13;0.50;;;7.40;99.90;;;;;;5013519;28;20054;-69
2022/04/09 10:11:35;;;;;;;3.63;0.45;;;6.20;99.90;;;;;;5013314;28;20058;-71
2022/04/09 10:14:03;;;;;;;4.82;1.13;;;6.50;99.90;;;;;;5012290;28;20379;-69
2022/04/09 10:16:33;;;;;;;3.60;0.50;;;6.80;99.90;;;;;;5013170;28;20042;-73
2022/04/09 10:19:00;;;;;;;0.88;0.20;;;6.70;99.90;;;;;;5011984;28;20522;-68
2022/04/09 10:21:29;;;;;;;2.80;0.40;;;6.30;99.90;;;;;;5013752;28;20050;-68
2022/04/09 10:24:00;;;;;;;3.03;0.40;;;6.00;99.90;;;;;;5012923;28;20478;-69
2022/04/09 10:26:28;;;;;;;2.85;0.30;;;5.70;99.90;;;;;;5013287;28;20054;-70
2022/04/09 10:29:06;;;;;;;4.65;0.47;;;5.50;99.90;;;;;;5012862;28;20429;-69
2022/04/09 10:31:33;;;;;;;3.47;0.55;;;5.40;99.90;;;;;;4998023;28;20470;-69
2022/04/09 10:34:00;;;;;;;1.40;0.20;;;5.40;99.90;;;;;;5015793;28;20129;-70
2022/04/09 10:36:41;;;;;;;2.38;0.30;;;5.50;99.90;;;;;;5016378;28;20057;-70
2022/04/09 10:39:23;;;;;;;1.50;0.30;;;5.50;99.90;;;;;;5016041;28;20042;-68
2022/04/09 10:41:57;;;;;;;3.22;1.20;;;5.80;99.90;;;;;;5017404;28;20437;-77
2022/04/09 10:44:45;;;;;;;1.50;0.20;;;6.40;99.90;;;;;;5016944;28;20041;-71
2022/04/09 10:47:14;;;;;;;2.58;0.20;;;6.00;99.90;;;;;;5015781;28;20511;-68
2022/04/09 10:49:41;;;;;;;0.52;0.30;;;6.30;99.90;;;;;;5015627;28;20113;-71
2022/04/09 10:52:11;;;;;;;0.70;0.20;;;6.20;99.90;;;;;;5015801;28;20521;-74
2022/04/09 10:54:38;;;;;;;1.05;0.10;;;6.00;99.90;;;;;;5016654;28;20060;-70
2022/04/09 10:57:23;;;;;;;0.98;0.10;;;6.20;99.90;;;;;;5015655;28;20045;-72
2022/04/09 10:59:58;;;;;;;1.73;0.38;;;6.30;99.90;;;;;;4999862;28;20053;-72
2022/04/09 11:02:25;;;;;;;0.32;0.10;;;6.30;99.90;;;;;;5017524;28;20045;-69
2022/04/09 11:04:52;;;;;;;1.00;0.10;;;6.40;99.90;;;;;;5020994;28;20053;-72
2022/04/09 11:07:22;;;;;;;0.73;0.10;;;6.30;99.90;;;;;;5019433;28;20076;-72
2022/04/09 11:09:52;;;;;;;2.10;0.10;;;6.40;99.90;;;;;;5016328;28;20062;-72
2022/04/09 11:12:24;;;;;;;1.42;0.20;;;6.40;99.90;;;;;;5017085;28;20486;-70
2022/04/09 11:14:59;;;;;;;4.00;0.40;;;6.80;99.90;;;;;;5018785;28;20129;-70
2022/04/09 11:17:33;;;;;;;1.48;0.20;;;6.60;99.90;;;;;;5017170;28;20128;-70
2022/04/09 11:20:04;;;;;;;;;;;6.60;99.90;;;;;;5017854;28;20057;-70
2022/04/09 11:22:35;;;;;;;2.42;0.20;;;6.70;99.90;;;;;;5016743;28;19987;-71
2022/04/09 11:25:02;;;;;;;4.88;0.40;;;6.70;99.90;;;;;;5016758;28;20046;-71
2022/04/09 11:27:28;;;;;;;5.13;0.50;;;6.70;99.90;;;;;;5015832;28;20049;-72
2022/04/09 11:29:55;;;;;;;2.63;0.40;;;6.90;99.90;;;;;;5015664;28;20046;-72
2022/04/09 11:32:22;;;;;;;1.60;0.30;;;6.90;99.90;;;;;;5015606;28;20061;-74
2022/04/09 11:34:50;;;;;;;3.08;0.40;;;7.00;99.90;;;;;;5000044;28;20085;-73
2022/04/09 11:37:15;;;;;;;3.65;0.40;;;7.10;99.90;;;;;;5015604;28;20049;-74
2022/04/09 11:39:43;;;;;;;4.93;0.40;;;7.20;99.90;;;;;;5016246;28;20072;-72
2022/04/09 11:42:09;;;;;;;3.47;0.40;;;7.40;99.90;;;;;;5016457;28;20050;-72
2022/04/09 11:44:35;;;;;;;1.95;0.52;;;7.70;99.90;;;;;;4982458;28;20133;-71
2022/04/09 11:47:16;;;;;;;5.82;0.40;;;7.80;99.90;;;;;;5015082;28;20564;-72
2022/04/09 11:49:44;;;;;;;5.93;0.65;;;7.80;99.90;;;;;;5014659;28;20096;-72
2022/04/09 11:52:10;;;;;;;5.32;0.52;;;7.80;99.90;;;;;;5015802;28;20411;-74
2022/04/09 11:54:38;;;;;;;2.10;0.55;;;7.90;99.90;;;;;;5014599;28;20475;-74
2022/04/09 11:57:10;;;;;;;3.67;0.50;;;7.90;99.90;;;;;;5016596;28;20050;-74
2022/04/09 11:59:37;;;;;;;3.45;0.50;;;8.10;99.90;;;;;;5016890;28;20184;-71
2022/04/09 12:02:03;;;;;;;7.75;1.35;;;8.20;99.90;;;;;;5016486;28;20129;-75
2022/04/09 12:04:34;;;;;;;3.38;0.60;;;8.30;99.90;;;;;;5014756;28;20046;-69
2022/04/09 12:07:02;;;;;;;7.05;0.63;;;8.30;99.90;;;;;;5015546;28;20569;-72
2022/04/09 12:09:30;;;;;;;3.72;0.90;;;8.40;99.90;;;;;;5015058;28;20058;-72
2022/04/09 12:12:00;;;;;;;4.40;0.77;;;8.50;99.90;;;;;;4998450;28;20050;-73
2022/04/09 12:14:27;;;;;;;4.97;0.45;;;8.60;99.90;;;;;;5015229;28;20050;-71
2022/04/09 12:16:53;;;;;;;4.00;0.47;;;8.60;99.90;;;;;;5015600;28;20046;-69
2022/04/09 12:19:31;;;;;;;4.53;0.52;;;8.60;99.90;;;;;;5014364;28;20053;-68
2022/04/09 12:22:14;;;;;;;4.13;0.50;;;8.30;99.90;;;;;;4999116;28;20049;-74
2022/04/09 12:24:57;;;;;;;3.78;0.77;;;8.20;99.90;;;;;;5015579;28;20053;-70
2022/04/09 12:27:45;;;;;;;3.50;0.50;;;8.20;99.90;;;;;;5015830;28;20115;-80
2022/04/09 12:30:12;;;;;;;6.97;0.63;;;8.10;99.90;;;;;;5014870;28;20053;-75
2022/04/09 12:32:41;;;;;;;7.43;0.60;;;8.10;99.90;;;;;;4998421;28;20053;-73
2022/04/09 12:35:08;;;;;;;2.42;0.65;;;8.00;99.90;;;;;;5014247;28;20474;-70
2022/04/09 12:37:50;;;;;;;4.00;0.45;;;7.90;99.90;;;;;;5015417;28;20041;-69
2022/04/09 12:40:18;;;;;;;4.32;0.50;;;7.60;99.90;;;;;;5015142;28;20054;-72
2022/04/09 12:42:46;;;;;;;5.72;0.93;;;7.40;99.90;;;;;;5015532;28;20037;-72
2022/04/09 12:45:16;;;;;;;3.75;0.77;;;7.20;99.90;;;;;;5014054;28;20042;-71
2022/04/09 12:47:52;;;;;;;2.75;0.45;;;7.20;99.90;;;;;;5015313;28;20057;-75
2022/04/09 12:50:20;;;;;;;4.15;0.40;;;7.20;99.90;;;;;;5014613;28;20509;-73
2022/04/09 12:52:46;;;;;;;6.43;1.13;;;7.30;99.90;;;;;;4997813;28;20053;-70
2022/04/09 12:55:15;;;;;;;1.85;1.00;;;7.40;99.90;;;;;;5013615;28;20173;-79
2022/04/09 12:57:41;;;;;;;3.90;0.60;;;7.60;99.90;;;;;;5013770;28;20045;-76
2022/04/09 13:00:07;;;;;;;2.92;0.40;;;7.60;99.90;;;;;;5013505;28;20049;-74